Thursday, April 17, 2014
09:36 UTC
  |  Log In   |  Register Free
Airport Search:

Enid Woodring Regional Airport
(KWDG)

FAA data valid effective April 3, 2014 until May 29, 2014 (unless otherwise noted).

 
 
 
 
 
 
 
 
 
 
 
 
 
 

Current Aviation Weather for Enid Woodring Regional Airport (KWDG)

The most recent METAR observation for KWDG was updated at: 0855 UTC
METAR Summary (Translated METAR)
KWDG
170855Z AUTO 01005KT 10SM CLR 09/03 A3009 RMK AO2
KEND
(6.6 nm SW from KWDG)
170853Z AUTO 01008KT 9SM R17C/5500FT CLR 10/05 A3008 RMK AO2
TAF Summary (Translated TAF)
KEND
(6.6 nm SW from KWDG)
1702/1724 15009KT 9999 BKN150 QNH2976INS BECMG 1708/1709 05012KT 9999 SCT070 BKN150 QNH2988INS BECMG 1712/1713 04010G15KT 8000 -SHRA BKN015 OVC060 610709 QNH3005INS BECMG 1721/1722 04009KT 9999 NSW OVC045 620707 QNH3011INS TX15/1702Z TN07/1711Z AMD 170246 LAST NO AMDS AFT 1702 NEXT 1710
  Airport Weather Conditions for KWDG

 Current Weather at WDG
50° F
Fair
North winds at 8.1 mph
WDG NOAA Radar

Pressure: 30.08 in
Humidity: 62%
Wind: North at 8.1 MPH (7 KT)
Dew Point: 37.4°F
Visibility: 10.00 mi


Airport Weather Forecast for KWDG

Translated METAR and TAF for KWDG
Translated METAR for KWDG (0936 UTC 17 April 2014)
found at http://aviationweather.gov/adds/metars/
 
METAR text: KWDG 170915Z AUTO 02009KT 10SM CLR 09/03 A3009 RMK AO2
Conditions at: KWDG (ENID/WOODRING , OK, US) observed 0915 UTC 17 April 2014
Temperature: 9.0°C (48°F)
Dewpoint: 3.0°C (37°F) [RH = 66%]
Pressure (altimeter): 30.09 inches Hg (1019.0 mb)
Winds: from the NNE (20 degrees) at 10 MPH (9 knots; 4.7 m/s)
Visibility: 10 or more miles (16+ km)
Ceiling: at least 12,000 feet AGL
Clouds: sky clear below 12,000 feet AGL
Weather: automated observation with no human augmentation;
there may or may not be significant weather present at this time
Translated TAF for KWDG

There is no translated TAF available for this airport

Find All Airport Services Find A Hotel Find A Rental Car Find A Golf Course Find A Restaurant $100 Hamburger



FBO's on the Field
FBO Company Facility Photos Services Transportation Aviation Fuel Prices: Prices include tax
Catering Weather Repair Courtesy Rental Type 100LL JetA JetA+ MOGAS 8087
 
Enid Woodring Regional Airport

This FBO has not yet been rated
FS:Phillips66
Last Updated: Mar-28
Login to update fuel prices
SS:
Contact Enid Woodring Regional AirportMore FBO Information
 
Add another FBO Facility Photos Catering Weather Repair Courtesy Rental Type 100LL JetA JetA+ MOGAS 8087
Services Transportation Aviation Fuel Prices: Prices include tax


GlobalAir.com Airport Resource Center model-print
model-print
model-print
model-print